ADDS METAR Data INFO
IDs: Format: Raw Decoded Include TAF

Data at: 1154 UTC 21 Jun 2018

KJFZ 211135Z AUTO 24005KT 10SM OVC016 20/19 A2997 RMK AO2 T01970185
KJFZ 211115Z AUTO 26006KT 1 1/4SM BR SCT003 BKN016 OVC021 20/19 A2997 RMK AO2 T01950187
KJFZ 211055Z AUTO 30003KT 10SM SCT021 20/18 A2997 RMK AO2 T01960182
KJFZ 211035Z AUTO 00000KT 10SM SCT031 SCT041 SCT047 20/18 A2996 RMK AO2 T01970181
KJFZ 211015Z AUTO 24004KT 10SM SCT015 BKN024 BKN033 20/18 A2996 RMK AO2 T01970182
KJFZ 210955Z AUTO 25005KT 10SM BKN015 OVC024 20/19 A2996 RMK AO2 T01970185
KJFZ 210935Z AUTO 25005KT 10SM OVC013 20/19 A2996 RMK AO2 T01990185
KJFZ 210915Z AUTO 24004KT 10SM OVC013 20/19 A2996 RMK AO2 T02000186
KJFZ 210855Z AUTO 24003KT 10SM OVC015 20/19 A2996 RMK AO2 T02010185
KJFZ 210835Z AUTO 24004KT 10SM BKN015 BKN022 OVC060 20/19 A2996 RMK AO2 T02000185
KJFZ 210815Z AUTO 23003KT 10SM -RA SCT019 BKN050 OVC065 20/19 A2996 RMK AO2 T02010186
KJFZ 210755Z AUTO 22005KT 10SM BKN019 BKN034 OVC040 21/19 A2996 RMK AO2 T02050186
KJFZ 210735Z AUTO 24005KT 10SM BKN019 BKN026 OVC034 21/19 A2997 RMK AO2 T02050188
KJFZ 210715Z AUTO 25007KT 10SM SCT027 BKN032 OVC060 21/19 A2997 RMK AO2 T02070190
KJFZ 210655Z AUTO 25005KT 10SM SCT040 BKN048 BKN060 20/19 A2997 RMK AO2 T02000189
KJFZ 210635Z AUTO 26005KT 10SM BKN038 21/19 A2997 RMK AO2 T02060187
KJFZ 210615Z AUTO 23003KT 10SM BKN036 BKN043 20/19 A2998 RMK AO2 T02040192
KJFZ 210550Z AUTO 00000KT 10SM SCT036 BKN043 20/19 A2999 RMK AO2 60020 T02020192 10225 20198 402570187
KJFZ 210535Z AUTO 21003KT 10SM SCT036 BKN043 BKN048 21/19 A3000 RMK AO2 T02060194
KJFZ 210515Z AUTO 00000KT 10SM SCT032 SCT041 20/19 A2999 RMK AO2 T02010194
KJFZ 210455Z AUTO 00000KT 7SM BKN032 BKN038 20/19 A3000 RMK AO2 T02000193
KJFZ 210435Z AUTO 16003KT 10SM SCT001 SCT110 20/19 A2999 RMK AO2 T02000192
KJFZ 210415Z AUTO 00000KT 1/2SM FG BKN001 BKN026 OVC039 20/19 A3000 RMK AO2 T02000191
KJFZ 210355Z AUTO 27004KT 7SM +RA SCT026 BKN037 BKN048 21/19 A3001 RMK AO2 P0002 T02050193
KJFZ 210335Z AUTO 00000KT 10SM SCT028 SCT038 BKN048 20/19 A3001 RMK AO2 T02040192
KJFZ 210315Z AUTO 00000KT 10SM BKN028 BKN032 OVC110 20/19 A3001 RMK AO2 T02040193
KJFZ 210255Z AUTO 00000KT 7SM BKN028 BKN033 OVC110 20/19 A3001 RMK AO2 60016 T02020194
KJFZ 210235Z AUTO 00000KT 10SM SCT033 BKN044 OVC065 21/19 A3001 RMK AO2 T02080194
KJFZ 210215Z AUTO 00000KT 10SM -RA SCT043 BKN055 OVC080 21/19 A3000 RMK AO2 T02050192
KJFZ 210155Z AUTO 00000KT 5SM -RA SCT028 BKN060 OVC080 20/19 A3000 RMK AO2 T02010192
KJFZ 210135Z AUTO 00000KT 10SM SCT036 BKN042 BKN080 20/19 A2998 RMK AO2 T02000190
KJFZ 210115Z AUTO 00000KT 10SM SCT037 SCT050 BKN080 20/19 A2997 RMK AO2 T02010188
KJFZ 210055Z AUTO 00000KT 10SM SCT042 SCT060 BKN110 21/19 A2997 RMK AO2 P0016 T02050185
KJFZ 210035Z AUTO 33006KT 7SM -TSRA SCT008 BKN033 OVC110 21/20 A2997 RMK AO2 LTG DSNT ALQS P0015 T02090197
KJFZ 210015Z AUTO 29008KT 4SM +TSRA BKN033 BKN047 BKN055 22/20 A2997 RMK AO2 LTG DSNT NW P0006 T02210196
KJFZ 202355Z AUTO 00000KT 10SM SCT031 SCT041 SCT075 22/20 A2996 RMK AO2 LTG DSNT NW P0004 60010 T02220199 10257 20220
KJFZ 202335Z AUTO 29003KT 10SM SCT033 SCT050 BKN065 23/20 A2996 RMK AO2 LTG DSNT W P0004 T02260196
KJFZ 202315Z AUTO 26004KT 5SM RA SCT049 BKN055 BKN095 23/19 A2997 RMK AO2 P0003 T02250193
KJFZ 202255Z AUTO 26006KT 10SM CLR 24/19 A2997 RMK AO2 T02350191
KJFZ 202235Z AUTO 28005KT 10SM CLR 24/20 A2997 RMK AO2 LTG DSNT NW T02420200
KJFZ 202215Z AUTO 28005KT 10SM SCT038 SCT044 SCT060 25/20 A2998 RMK AO2 LTG DSNT W AND NW T02450199
KJFZ 202155Z AUTO 28005KT 10SM SCT044 BKN060 24/20 A2998 RMK AO2 LTG DSNT NW T02440203
KJFZ 202135Z AUTO 26005G14KT 10SM SCT032 BKN060 OVC080 24/20 A2998 RMK AO2 LTG DSNT N T02380195
KJFZ 202115Z AUTO 24007KT 10SM BKN032 BKN039 BKN046 24/19 A2998 RMK AO2 LTG DSNT W T02440190
KJFZ 202055Z AUTO 25004KT 10SM SCT034 SCT044 BKN065 25/20 A2998 RMK AO2 LTG DSNT NE 60006 T02520204
KJFZ 202035Z AUTO 24003KT 10SM SCT046 BKN065 OVC085 24/20 A2999 RMK AO2 T02440201
KJFZ 202015Z AUTO 25006KT 10SM SCT027 SCT050 OVC070 24/21 A2999 RMK AO2 LTG DSNT N T02430205
KJFZ 201955Z AUTO 00000KT 10SM -RA SCT025 BKN046 OVC080 24/22 A2999 RMK AO2 P0006 T02350219
KJFZ 201935Z AUTO 00000KT 3SM +RA SCT029 BKN080 OVC095 24/21 A3000 RMK AO2 P0005 T02380206
KJFZ 201915Z AUTO 00000KT 10SM SCT085 BKN095 25/20 A3001 RMK AO2 LTG DSNT NE T02500204
KJFZ 201855Z AUTO 00000KT 10SM -DZ SCT029 BKN085 OVC110 24/21 A3002 RMK AO2 T02440213
KJFZ 201835Z AUTO 00000KT 10SM SCT070 BKN095 23/20 A3003 RMK AO2 T02310201
KJFZ 201815Z AUTO 00000KT 10SM -RA SCT018 SCT036 OVC085 22/21 A3004 RMK AO2 T02200207
KJFZ 201755Z AUTO 19003KT 10SM SCT020 SCT025 OVC095 23/20 A3004 RMK AO2 60022 T02250196 10254 20201
KJFZ 201735Z AUTO 00000KT 10SM SCT027 BKN095 BKN120 23/20 A3004 RMK AO2 T02260201
KJFZ 201715Z AUTO 00000KT 10SM SCT027 SCT075 SCT085 23/18 A3006 RMK AO2 T02260183
KJFZ 201655Z AUTO 00000KT 10SM SCT018 SCT038 BKN075 21/18 A3006 RMK AO2 P0022 T02140176
KJFZ 201635Z AUTO 00000KT 1 1/4SM +RA BKN019 BKN042 OVC065 20/19 A3007 RMK AO2 P0021 T02020185
KJFZ 201615Z AUTO 24003KT 10SM OVC100 24/19 A3006 RMK AO2 T02420186
KJFZ 201555Z AUTO 28006KT 10SM SCT031 SCT060 OVC100 24/18 A3007 RMK AO2 T02370179
KJFZ 201535Z AUTO 28007KT 10SM SCT024 BKN032 OVC110 24/18 A3006 RMK AO2 T02430177
KJFZ 201515Z AUTO 30005KT 10SM BKN024 BKN029 BKN039 25/18 A3007 RMK AO2 T02450181
KJFZ 201455Z AUTO 30007KT 260V330 10SM SCT017 SCT024 BKN029 24/18 A3007 RMK AO2 T02440180
KJFZ 201435Z AUTO 27006KT 10SM BKN017 BKN022 OVC029 24/20 A3007 RMK AO2 T02380197
KJFZ 201415Z AUTO 27006KT 10SM BKN017 BKN025 BKN031 25/20 A3007 RMK AO2 T02450198
KJFZ 201355Z AUTO 24005KT 10SM BKN017 BKN045 OVC050 24/20 A3007 RMK AO2 T02400199
KJFZ 201335Z AUTO 26004KT 10SM BKN017 BKN023 24/20 A3007 RMK AO2 T02350196
KJFZ 201315Z AUTO 26005KT 10SM SCT020 23/19 A3008 RMK AO2 T02290191
KJFZ 201255Z AUTO 26004KT 10SM CLR 23/19 A3007 RMK AO2 T02300194
KJFZ 201235Z AUTO 00000KT 10SM CLR 23/19 A3007 RMK AO2 T02250192
KJFZ 201215Z AUTO 00000KT 10SM CLR 22/19 A3007 RMK AO2 T02160189
KJFZ 201155Z AUTO 00000KT 10SM CLR 21/19 A3007 RMK AO2 T02100189 10212 20187
KJFZ 201135Z AUTO 00000KT 10SM SCT033 SCT043 21/19 A3007 RMK AO2 T02110187
KJFZ 201115Z AUTO 24003KT 10SM SCT035 BKN043 20/19 A3007 RMK AO2 T02020187
KJFZ 201055Z AUTO 00000KT 10SM BKN039 20/18 A3007 RMK AO2 T01950183
KJFZ 201035Z AUTO 22003KT 10SM SCT031 OVC039 20/19 A3006 RMK AO2 T01980185
KJFZ 201015Z AUTO 26004KT 7SM OVC041 20/19 A3006 RMK AO2 T01950185
KJFZ 200955Z AUTO 28003KT 10SM SCT034 OVC043 20/19 A3006 RMK AO2 T01950185
KJFZ 200935Z AUTO 00000KT 1 1/2SM BR SCT002 BKN034 BKN045 19/18 A3005 RMK AO2 T01870181
KJFZ 200915Z AUTO 00000KT 3SM BR SCT002 SCT033 SCT048 19/18 A3004 RMK AO2 T01910181
KJFZ 200855Z AUTO 27004KT 10SM SCT033 SCT050 20/19 A3004 RMK AO2 T01970185
KJFZ 200835Z AUTO 27003KT 10SM SCT050 20/18 A3004 RMK AO2 T01950183
KJFZ 200815Z AUTO 00000KT 10SM CLR 20/18 A3005 RMK AO2 T01950184
KJFZ 200755Z AUTO 15003KT 10SM SCT034 SCT060 19/18 A3005 RMK AO2 T01940182
KJFZ 200735Z AUTO 00000KT 10SM SCT024 SCT034 BKN060 20/18 A3006 RMK AO2 T02000184
KJFZ 200710Z AUTO 00000KT 10SM BKN024 BKN030 BKN036 20/18 A3006 RMK AO2 T02010181
KJFZ 200655Z AUTO 00000KT 10SM BKN024 BKN031 OVC039 21/18 A3006 RMK AO2 T02050182
KJFZ 200635Z AUTO 00000KT 10SM SCT022 BKN030 BKN120 21/19 A3007 RMK AO2 T02050185
KJFZ 200615Z AUTO 20003KT 10SM SCT120 21/18 A3007 RMK AO2 T02100182
KJFZ 200555Z AUTO 20003KT 10SM SCT026 SCT030 21/18 A3007 RMK AO2 T02110180 10264 20211 402990205
KJFZ 200535Z AUTO 00000KT 10SM SCT026 SCT047 22/18 A3007 RMK AO2 T02180178
KJFZ 200515Z AUTO 00000KT 10SM SCT031 SCT047 22/18 A3007 RMK AO2 T02150180
KJFZ 200455Z AUTO 00000KT 10SM SCT031 SCT120 22/18 A3008 RMK AO2 T02170182
KJFZ 200435Z AUTO 16003KT 10SM SCT120 22/18 A3008 RMK AO2 T02150183
KJFZ 200415Z AUTO 17004KT 10SM SCT120 22/18 A3008 RMK AO2 T02190182
KJFZ 200355Z AUTO 00000KT 10SM BKN110 22/18 A3008 RMK AO2 T02200181
KJFZ 200335Z AUTO 00000KT 10SM OVC110 22/18 A3008 RMK AO2 LTG DSNT SW T02210181
KJFZ 200315Z AUTO 33003KT 10SM SCT070 BKN080 OVC110 22/18 A3009 RMK AO2 T02220180
KJFZ 200255Z AUTO 33007KT 10SM BKN070 BKN090 23/18 A3010 RMK AO2 T02250181
KJFZ 200235Z AUTO 32007KT 10SM SCT028 BKN048 BKN070 23/18 A3010 RMK AO2 T02270182
KJFZ 200215Z AUTO 34008KT 290V360 10SM SCT025 BKN032 BKN038 23/19 A3010 RMK AO2 T02340189
KJFZ 200155Z AUTO 34003KT 10SM SCT046 24/19 A3008 RMK AO2 T02360186
KJFZ 200135Z AUTO 33004KT 10SM SCT046 SCT110 24/19 A3007 RMK AO2 LTG DSNT NW T02400185
KJFZ 200115Z AUTO 00000KT 10SM SCT036 SCT050 BKN110 24/19 A3006 RMK AO2 T02420187
KJFZ 200055Z AUTO 35004KT 10SM BKN036 BKN042 OVC080 25/19 A3006 RMK AO2 T02480187
KJFZ 200035Z AUTO 33004KT 10SM BKN038 BKN045 BKN075 26/19 A3005 RMK AO2 T02570192
KJFZ 200015Z AUTO 32004KT 10SM SCT038 SCT045 SCT075 26/19 A3005 RMK AO2 T02600192
KJFZ 192355Z AUTO 31003KT 10SM SCT040 SCT047 27/19 A3005 RMK AO2 LTG DSNT NW T02650191 10299 20265